sensor_id;sensor_type;location;lat;lon;timestamp;P1;durP1;ratioP1;P2;durP2;ratioP2
51800;SDS011;37855;53.204;6.568;2024-03-22T00:00:14;27.13;;;16.83;;
51800;SDS011;37855;53.204;6.568;2024-03-22T00:02:40;28.27;;;17.23;;
51800;SDS011;37855;53.204;6.568;2024-03-22T00:05:06;29.70;;;16.60;;
51800;SDS011;37855;53.204;6.568;2024-03-22T00:07:31;30.20;;;18.08;;
51800;SDS011;37855;53.204;6.568;2024-03-22T00:09:57;27.30;;;16.60;;
51800;SDS011;37855;53.204;6.568;2024-03-22T00:12:22;29.67;;;17.25;;
51800;SDS011;37855;53.204;6.568;2024-03-22T00:14:48;29.90;;;16.60;;
51800;SDS011;37855;53.204;6.568;2024-03-22T00:17:16;27.52;;;17.02;;
51800;SDS011;37855;53.204;6.568;2024-03-22T00:19:41;28.10;;;17.00;;
51800;SDS011;37855;53.204;6.568;2024-03-22T00:22:07;28.15;;;16.83;;
51800;SDS011;37855;53.204;6.568;2024-03-22T00:24:33;30.50;;;16.93;;
51800;SDS011;37855;53.204;6.568;2024-03-22T00:27:00;26.90;;;17.10;;
51800;SDS011;37855;53.204;6.568;2024-03-22T00:29:25;28.03;;;17.10;;
51800;SDS011;37855;53.204;6.568;2024-03-22T00:31:51;29.48;;;17.60;;
51800;SDS011;37855;53.204;6.568;2024-03-22T00:34:17;32.27;;;18.93;;
51800;SDS011;37855;53.204;6.568;2024-03-22T00:36:43;27.60;;;17.40;;
51800;SDS011;37855;53.204;6.568;2024-03-22T00:39:08;29.80;;;17.87;;
51800;SDS011;37855;53.204;6.568;2024-03-22T00:41:34;29.95;;;18.60;;
51800;SDS011;37855;53.204;6.568;2024-03-22T00:43:59;30.80;;;18.53;;
51800;SDS011;37855;53.204;6.568;2024-03-22T00:46:25;33.10;;;18.63;;
51800;SDS011;37855;53.204;6.568;2024-03-22T00:48:51;34.17;;;18.47;;
51800;SDS011;37855;53.204;6.568;2024-03-22T00:51:17;32.47;;;18.08;;
51800;SDS011;37855;53.204;6.568;2024-03-22T00:53:42;33.20;;;19.20;;
51800;SDS011;37855;53.204;6.568;2024-03-22T00:56:08;34.55;;;19.60;;
51800;SDS011;37855;53.204;6.568;2024-03-22T00:58:34;35.50;;;20.17;;
51800;SDS011;37855;53.204;6.568;2024-03-22T01:00:59;33.60;;;20.13;;
51800;SDS011;37855;53.204;6.568;2024-03-22T01:03:25;33.80;;;20.17;;
51800;SDS011;37855;53.204;6.568;2024-03-22T01:05:50;32.50;;;18.63;;
51800;SDS011;37855;53.204;6.568;2024-03-22T01:08:16;36.13;;;19.50;;
51800;SDS011;37855;53.204;6.568;2024-03-22T01:10:42;33.33;;;19.80;;
51800;SDS011;37855;53.204;6.568;2024-03-22T01:13:07;36.25;;;20.63;;
51800;SDS011;37855;53.204;6.568;2024-03-22T01:15:33;36.77;;;20.63;;
51800;SDS011;37855;53.204;6.568;2024-03-22T01:17:59;36.90;;;21.05;;
51800;SDS011;37855;53.204;6.568;2024-03-22T01:20:24;39.63;;;21.73;;
51800;SDS011;37855;53.204;6.568;2024-03-22T01:22:50;34.92;;;20.30;;
51800;SDS011;37855;53.204;6.568;2024-03-22T01:25:16;40.07;;;22.10;;
51800;SDS011;37855;53.204;6.568;2024-03-22T01:27:41;36.07;;;21.17;;
51800;SDS011;37855;53.204;6.568;2024-03-22T01:30:07;36.97;;;21.65;;
51800;SDS011;37855;53.204;6.568;2024-03-22T01:32:34;37.08;;;21.10;;
51800;SDS011;37855;53.204;6.568;2024-03-22T01:35:00;37.23;;;21.47;;
51800;SDS011;37855;53.204;6.568;2024-03-22T01:37:26;37.78;;;21.80;;
51800;SDS011;37855;53.204;6.568;2024-03-22T01:39:51;37.93;;;21.20;;
51800;SDS011;37855;53.204;6.568;2024-03-22T01:42:17;39.10;;;22.23;;
51800;SDS011;37855;53.204;6.568;2024-03-22T01:44:42;38.07;;;21.83;;
51800;SDS011;37855;53.204;6.568;2024-03-22T01:47:08;39.77;;;21.83;;
51800;SDS011;37855;53.204;6.568;2024-03-22T01:49:34;39.83;;;22.63;;
51800;SDS011;37855;53.204;6.568;2024-03-22T01:52:00;40.90;;;22.38;;
51800;SDS011;37855;53.204;6.568;2024-03-22T01:54:25;41.63;;;23.47;;
51800;SDS011;37855;53.204;6.568;2024-03-22T01:56:51;40.75;;;23.27;;
51800;SDS011;37855;53.204;6.568;2024-03-22T01:59:17;43.93;;;23.37;;
51800;SDS011;37855;53.204;6.568;2024-03-22T02:01:43;38.60;;;22.50;;
51800;SDS011;37855;53.204;6.568;2024-03-22T02:04:09;40.40;;;22.50;;
51800;SDS011;37855;53.204;6.568;2024-03-22T02:06:35;40.17;;;22.40;;
51800;SDS011;37855;53.204;6.568;2024-03-22T02:09:00;42.10;;;22.67;;
51800;SDS011;37855;53.204;6.568;2024-03-22T02:11:27;44.80;;;24.13;;
51800;SDS011;37855;53.204;6.568;2024-03-22T02:13:53;39.77;;;23.07;;
51800;SDS011;37855;53.204;6.568;2024-03-22T02:16:19;43.35;;;23.80;;
51800;SDS011;37855;53.204;6.568;2024-03-22T02:18:44;42.03;;;23.67;;
51800;SDS011;37855;53.204;6.568;2024-03-22T02:21:10;44.00;;;24.45;;
51800;SDS011;37855;53.204;6.568;2024-03-22T02:23:37;45.13;;;24.13;;
51800;SDS011;37855;53.204;6.568;2024-03-22T02:26:04;47.05;;;24.17;;
51800;SDS011;37855;53.204;6.568;2024-03-22T02:28:30;49.63;;;26.10;;
51800;SDS011;37855;53.204;6.568;2024-03-22T02:30:57;46.10;;;25.58;;
51800;SDS011;37855;53.204;6.568;2024-03-22T02:33:23;45.47;;;25.17;;
51800;SDS011;37855;53.204;6.568;2024-03-22T02:35:49;43.43;;;24.40;;
51800;SDS011;37855;53.204;6.568;2024-03-22T02:38:15;50.03;;;25.08;;
51800;SDS011;37855;53.204;6.568;2024-03-22T02:40:45;48.17;;;25.80;;
51800;SDS011;37855;53.204;6.568;2024-03-22T02:43:12;51.37;;;25.23;;
51800;SDS011;37855;53.204;6.568;2024-03-22T02:45:37;48.15;;;24.05;;
51800;SDS011;37855;53.204;6.568;2024-03-22T02:48:03;49.03;;;25.05;;
51800;SDS011;37855;53.204;6.568;2024-03-22T02:50:36;48.25;;;26.05;;
51800;SDS011;37855;53.204;6.568;2024-03-22T02:53:02;50.37;;;25.30;;
51800;SDS011;37855;53.204;6.568;2024-03-22T02:55:30;49.53;;;25.67;;
51800;SDS011;37855;53.204;6.568;2024-03-22T02:58:03;51.55;;;26.63;;
51800;SDS011;37855;53.204;6.568;2024-03-22T03:00:29;54.58;;;26.98;;
51800;SDS011;37855;53.204;6.568;2024-03-22T03:02:55;51.10;;;26.80;;
51800;SDS011;37855;53.204;6.568;2024-03-22T03:05:20;51.10;;;26.70;;
51800;SDS011;37855;53.204;6.568;2024-03-22T03:07:48;54.65;;;26.95;;
51800;SDS011;37855;53.204;6.568;2024-03-22T03:10:15;55.53;;;26.23;;
51800;SDS011;37855;53.204;6.568;2024-03-22T03:12:41;54.33;;;26.65;;
51800;SDS011;37855;53.204;6.568;2024-03-22T03:15:07;56.60;;;26.97;;
51800;SDS011;37855;53.204;6.568;2024-03-22T03:17:32;55.70;;;28.10;;
51800;SDS011;37855;53.204;6.568;2024-03-22T03:19:58;56.30;;;28.43;;
51800;SDS011;37855;53.204;6.568;2024-03-22T03:22:24;53.57;;;27.47;;
51800;SDS011;37855;53.204;6.568;2024-03-22T03:24:49;53.87;;;27.47;;
51800;SDS011;37855;53.204;6.568;2024-03-22T03:27:15;59.00;;;27.33;;
51800;SDS011;37855;53.204;6.568;2024-03-22T03:29:40;53.47;;;26.45;;
51800;SDS011;37855;53.204;6.568;2024-03-22T03:32:06;58.53;;;27.53;;
51800;SDS011;37855;53.204;6.568;2024-03-22T03:34:32;61.00;;;29.13;;
51800;SDS011;37855;53.204;6.568;2024-03-22T03:36:57;58.83;;;27.10;;
51800;SDS011;37855;53.204;6.568;2024-03-22T03:39:25;60.30;;;29.27;;
51800;SDS011;37855;53.204;6.568;2024-03-22T03:41:51;59.83;;;28.95;;
51800;SDS011;37855;53.204;6.568;2024-03-22T03:44:17;60.27;;;28.03;;
51800;SDS011;37855;53.204;6.568;2024-03-22T03:46:42;60.20;;;27.93;;
51800;SDS011;37855;53.204;6.568;2024-03-22T03:49:08;64.45;;;27.83;;
51800;SDS011;37855;53.204;6.568;2024-03-22T03:51:33;58.83;;;27.40;;
51800;SDS011;37855;53.204;6.568;2024-03-22T03:53:59;62.77;;;28.83;;
51800;SDS011;37855;53.204;6.568;2024-03-22T03:56:24;57.80;;;28.07;;
51800;SDS011;37855;53.204;6.568;2024-03-22T03:58:50;61.27;;;28.27;;
51800;SDS011;37855;53.204;6.568;2024-03-22T04:01:16;59.38;;;27.23;;
51800;SDS011;37855;53.204;6.568;2024-03-22T04:03:43;60.58;;;27.23;;
51800;SDS011;37855;53.204;6.568;2024-03-22T04:06:08;60.20;;;26.53;;
51800;SDS011;37855;53.204;6.568;2024-03-22T04:08:34;59.63;;;27.37;;
51800;SDS011;37855;53.204;6.568;2024-03-22T04:10:59;65.53;;;28.13;;
51800;SDS011;37855;53.204;6.568;2024-03-22T04:13:25;60.63;;;27.10;;
51800;SDS011;37855;53.204;6.568;2024-03-22T04:15:52;59.58;;;27.40;;
51800;SDS011;37855;53.204;6.568;2024-03-22T04:18:18;58.25;;;25.67;;
51800;SDS011;37855;53.204;6.568;2024-03-22T04:20:54;57.05;;;27.45;;
51800;SDS011;37855;53.204;6.568;2024-03-22T04:23:20;57.40;;;25.40;;
51800;SDS011;37855;53.204;6.568;2024-03-22T04:25:53;55.58;;;25.52;;
51800;SDS011;37855;53.204;6.568;2024-03-22T04:28:26;59.90;;;26.67;;
51800;SDS011;37855;53.204;6.568;2024-03-22T04:33:27;56.67;;;26.10;;
51800;SDS011;37855;53.204;6.568;2024-03-22T04:35:54;59.97;;;26.53;;
51800;SDS011;37855;53.204;6.568;2024-03-22T04:38:21;56.88;;;25.60;;
51800;SDS011;37855;53.204;6.568;2024-03-22T04:40:47;56.70;;;26.13;;
51800;SDS011;37855;53.204;6.568;2024-03-22T04:43:13;55.72;;;25.98;;
51800;SDS011;37855;53.204;6.568;2024-03-22T04:45:41;58.95;;;26.23;;
51800;SDS011;37855;53.204;6.568;2024-03-22T04:48:12;53.17;;;24.90;;
51800;SDS011;37855;53.204;6.568;2024-03-22T04:50:39;57.50;;;25.70;;
51800;SDS011;37855;53.204;6.568;2024-03-22T04:53:04;56.58;;;25.27;;
51800;SDS011;37855;53.204;6.568;2024-03-22T04:55:31;51.30;;;25.03;;
51800;SDS011;37855;53.204;6.568;2024-03-22T04:58:00;54.30;;;24.25;;
51800;SDS011;37855;53.204;6.568;2024-03-22T05:00:26;53.72;;;25.73;;
51800;SDS011;37855;53.204;6.568;2024-03-22T05:02:55;53.88;;;24.55;;
51800;SDS011;37855;53.204;6.568;2024-03-22T05:05:21;52.33;;;24.50;;
51800;SDS011;37855;53.204;6.568;2024-03-22T05:07:46;48.83;;;24.42;;
51800;SDS011;37855;53.204;6.568;2024-03-22T05:10:12;48.35;;;24.00;;
51800;SDS011;37855;53.204;6.568;2024-03-22T05:12:38;49.27;;;23.93;;
51800;SDS011;37855;53.204;6.568;2024-03-22T05:15:05;51.88;;;23.92;;
51800;SDS011;37855;53.204;6.568;2024-03-22T05:17:31;48.95;;;23.50;;
51800;SDS011;37855;53.204;6.568;2024-03-22T05:20:00;51.30;;;23.88;;
51800;SDS011;37855;53.204;6.568;2024-03-22T05:22:27;47.10;;;22.63;;
51800;SDS011;37855;53.204;6.568;2024-03-22T05:24:53;50.75;;;24.83;;
51800;SDS011;37855;53.204;6.568;2024-03-22T05:27:18;45.70;;;21.60;;
51800;SDS011;37855;53.204;6.568;2024-03-22T05:29:44;51.50;;;24.10;;
51800;SDS011;37855;53.204;6.568;2024-03-22T05:32:10;49.97;;;22.67;;
51800;SDS011;37855;53.204;6.568;2024-03-22T05:34:35;45.28;;;22.10;;
51800;SDS011;37855;53.204;6.568;2024-03-22T05:37:01;50.28;;;22.65;;
51800;SDS011;37855;53.204;6.568;2024-03-22T05:39:27;46.57;;;21.63;;
51800;SDS011;37855;53.204;6.568;2024-03-22T05:41:53;43.30;;;21.48;;
51800;SDS011;37855;53.204;6.568;2024-03-22T05:44:22;50.15;;;22.02;;
51800;SDS011;37855;53.204;6.568;2024-03-22T05:46:48;44.50;;;22.47;;
51800;SDS011;37855;53.204;6.568;2024-03-22T05:49:14;47.83;;;22.35;;
51800;SDS011;37855;53.204;6.568;2024-03-22T05:51:40;43.60;;;21.50;;
51800;SDS011;37855;53.204;6.568;2024-03-22T05:54:05;43.60;;;21.80;;
51800;SDS011;37855;53.204;6.568;2024-03-22T05:56:31;47.85;;;21.80;;
51800;SDS011;37855;53.204;6.568;2024-03-22T05:58:57;42.23;;;20.57;;
51800;SDS011;37855;53.204;6.568;2024-03-22T06:01:22;44.40;;;21.23;;
51800;SDS011;37855;53.204;6.568;2024-03-22T06:03:49;41.47;;;20.17;;
51800;SDS011;37855;53.204;6.568;2024-03-22T06:06:15;41.13;;;20.27;;
51800;SDS011;37855;53.204;6.568;2024-03-22T06:08:41;46.10;;;19.93;;
51800;SDS011;37855;53.204;6.568;2024-03-22T06:11:08;41.58;;;19.50;;
51800;SDS011;37855;53.204;6.568;2024-03-22T06:13:34;37.65;;;18.73;;
51800;SDS011;37855;53.204;6.568;2024-03-22T06:16:01;34.38;;;17.95;;
51800;SDS011;37855;53.204;6.568;2024-03-22T06:18:27;33.70;;;17.20;;
51800;SDS011;37855;53.204;6.568;2024-03-22T06:20:53;35.40;;;16.60;;
51800;SDS011;37855;53.204;6.568;2024-03-22T06:25:51;34.47;;;17.60;;
51800;SDS011;37855;53.204;6.568;2024-03-22T06:28:18;33.40;;;16.17;;
51800;SDS011;37855;53.204;6.568;2024-03-22T06:30:43;32.87;;;15.27;;
51800;SDS011;37855;53.204;6.568;2024-03-22T06:33:09;31.53;;;15.33;;
51800;SDS011;37855;53.204;6.568;2024-03-22T06:35:34;27.90;;;13.43;;
51800;SDS011;37855;53.204;6.568;2024-03-22T06:38:00;33.50;;;14.97;;
51800;SDS011;37855;53.204;6.568;2024-03-22T06:40:27;34.80;;;15.05;;
51800;SDS011;37855;53.204;6.568;2024-03-22T06:42:54;32.33;;;15.50;;
51800;SDS011;37855;53.204;6.568;2024-03-22T06:45:19;33.97;;;14.90;;
51800;SDS011;37855;53.204;6.568;2024-03-22T06:47:45;32.45;;;14.32;;
51800;SDS011;37855;53.204;6.568;2024-03-22T06:50:11;31.83;;;15.13;;
51800;SDS011;37855;53.204;6.568;2024-03-22T06:52:36;37.50;;;15.40;;
51800;SDS011;37855;53.204;6.568;2024-03-22T06:55:02;34.83;;;14.83;;
51800;SDS011;37855;53.204;6.568;2024-03-22T06:57:28;33.05;;;13.88;;
51800;SDS011;37855;53.204;6.568;2024-03-22T06:59:54;34.10;;;14.10;;
51800;SDS011;37855;53.204;6.568;2024-03-22T07:02:19;29.67;;;13.93;;
51800;SDS011;37855;53.204;6.568;2024-03-22T07:04:45;31.45;;;13.75;;
51800;SDS011;37855;53.204;6.568;2024-03-22T07:07:11;33.13;;;14.20;;
51800;SDS011;37855;53.204;6.568;2024-03-22T07:09:37;36.17;;;13.93;;
51800;SDS011;37855;53.204;6.568;2024-03-22T07:12:02;26.53;;;12.40;;
51800;SDS011;37855;53.204;6.568;2024-03-22T07:14:28;29.48;;;13.07;;
51800;SDS011;37855;53.204;6.568;2024-03-22T07:16:54;29.70;;;12.43;;
51800;SDS011;37855;53.204;6.568;2024-03-22T07:19:20;24.07;;;12.43;;
51800;SDS011;37855;53.204;6.568;2024-03-22T07:21:46;28.97;;;13.17;;
51800;SDS011;37855;53.204;6.568;2024-03-22T07:24:12;28.65;;;12.93;;
51800;SDS011;37855;53.204;6.568;2024-03-22T07:26:38;24.42;;;12.98;;
51800;SDS011;37855;53.204;6.568;2024-03-22T07:29:04;30.10;;;12.80;;
51800;SDS011;37855;53.204;6.568;2024-03-22T07:31:29;27.35;;;11.77;;
51800;SDS011;37855;53.204;6.568;2024-03-22T07:33:55;30.13;;;12.65;;
51800;SDS011;37855;53.204;6.568;2024-03-22T07:36:21;31.83;;;11.87;;
51800;SDS011;37855;53.204;6.568;2024-03-22T07:38:47;26.48;;;12.13;;
51800;SDS011;37855;53.204;6.568;2024-03-22T07:41:15;29.70;;;11.60;;
51800;SDS011;37855;53.204;6.568;2024-03-22T07:43:40;30.02;;;12.10;;
51800;SDS011;37855;53.204;6.568;2024-03-22T07:46:06;29.50;;;12.40;;
51800;SDS011;37855;53.204;6.568;2024-03-22T07:48:32;27.53;;;11.40;;
51800;SDS011;37855;53.204;6.568;2024-03-22T07:50:58;29.37;;;12.37;;
51800;SDS011;37855;53.204;6.568;2024-03-22T07:53:25;28.77;;;11.88;;
51800;SDS011;37855;53.204;6.568;2024-03-22T07:55:51;27.15;;;11.75;;
51800;SDS011;37855;53.204;6.568;2024-03-22T07:58:17;27.93;;;10.80;;
51800;SDS011;37855;53.204;6.568;2024-03-22T08:00:42;23.40;;;11.20;;
51800;SDS011;37855;53.204;6.568;2024-03-22T08:03:09;22.33;;;10.93;;
51800;SDS011;37855;53.204;6.568;2024-03-22T08:05:40;23.77;;;10.65;;
51800;SDS011;37855;53.204;6.568;2024-03-22T08:08:06;22.58;;;10.85;;
51800;SDS011;37855;53.204;6.568;2024-03-22T08:10:32;21.48;;;11.63;;
51800;SDS011;37855;53.204;6.568;2024-03-22T08:12:57;26.77;;;11.90;;
51800;SDS011;37855;53.204;6.568;2024-03-22T08:15:23;23.17;;;10.80;;
51800;SDS011;37855;53.204;6.568;2024-03-22T08:17:49;24.87;;;11.20;;
51800;SDS011;37855;53.204;6.568;2024-03-22T08:20:15;24.85;;;11.10;;
51800;SDS011;37855;53.204;6.568;2024-03-22T08:22:41;22.80;;;10.27;;
51800;SDS011;37855;53.204;6.568;2024-03-22T08:25:10;23.77;;;10.85;;
51800;SDS011;37855;53.204;6.568;2024-03-22T08:27:38;19.55;;;9.80;;
51800;SDS011;37855;53.204;6.568;2024-03-22T08:30:04;21.53;;;9.63;;
51800;SDS011;37855;53.204;6.568;2024-03-22T08:32:30;20.73;;;9.80;;
51800;SDS011;37855;53.204;6.568;2024-03-22T08:34:56;18.08;;;10.38;;
51800;SDS011;37855;53.204;6.568;2024-03-22T08:37:22;18.70;;;9.43;;
51800;SDS011;37855;53.204;6.568;2024-03-22T08:39:47;23.88;;;10.52;;
51800;SDS011;37855;53.204;6.568;2024-03-22T08:42:13;17.77;;;8.80;;
51800;SDS011;37855;53.204;6.568;2024-03-22T08:44:42;17.97;;;8.80;;
51800;SDS011;37855;53.204;6.568;2024-03-22T08:47:10;16.83;;;8.67;;
51800;SDS011;37855;53.204;6.568;2024-03-22T08:49:37;17.17;;;8.05;;
51800;SDS011;37855;53.204;6.568;2024-03-22T08:52:02;14.13;;;7.33;;
51800;SDS011;37855;53.204;6.568;2024-03-22T08:54:28;13.43;;;6.97;;
51800;SDS011;37855;53.204;6.568;2024-03-22T08:56:55;14.00;;;7.20;;
51800;SDS011;37855;53.204;6.568;2024-03-22T08:59:21;17.33;;;7.33;;
51800;SDS011;37855;53.204;6.568;2024-03-22T09:01:48;12.80;;;6.82;;
51800;SDS011;37855;53.204;6.568;2024-03-22T09:04:13;11.40;;;6.68;;
51800;SDS011;37855;53.204;6.568;2024-03-22T09:06:40;11.63;;;6.20;;
51800;SDS011;37855;53.204;6.568;2024-03-22T09:09:06;10.50;;;6.55;;
51800;SDS011;37855;53.204;6.568;2024-03-22T09:11:33;12.32;;;6.15;;
51800;SDS011;37855;53.204;6.568;2024-03-22T09:13:58;10.70;;;5.60;;
51800;SDS011;37855;53.204;6.568;2024-03-22T09:16:24;11.10;;;5.75;;
51800;SDS011;37855;53.204;6.568;2024-03-22T09:18:49;11.83;;;5.90;;
51800;SDS011;37855;53.204;6.568;2024-03-22T09:21:18;9.30;;;5.30;;
51800;SDS011;37855;53.204;6.568;2024-03-22T09:23:44;9.80;;;5.50;;
51800;SDS011;37855;53.204;6.568;2024-03-22T09:26:09;8.67;;;5.53;;
51800;SDS011;37855;53.204;6.568;2024-03-22T09:28:35;12.83;;;5.80;;
51800;SDS011;37855;53.204;6.568;2024-03-22T09:31:04;9.73;;;5.78;;
51800;SDS011;37855;53.204;6.568;2024-03-22T09:33:31;11.45;;;5.70;;
51800;SDS011;37855;53.204;6.568;2024-03-22T09:35:58;10.32;;;5.78;;
51800;SDS011;37855;53.204;6.568;2024-03-22T09:38:23;10.10;;;5.50;;
51800;SDS011;37855;53.204;6.568;2024-03-22T09:40:49;9.13;;;5.28;;
51800;SDS011;37855;53.204;6.568;2024-03-22T09:43:19;11.45;;;5.85;;
51800;SDS011;37855;53.204;6.568;2024-03-22T09:45:46;11.52;;;5.50;;
51800;SDS011;37855;53.204;6.568;2024-03-22T09:48:15;8.43;;;5.23;;
51800;SDS011;37855;53.204;6.568;2024-03-22T09:50:46;8.77;;;5.28;;
51800;SDS011;37855;53.204;6.568;2024-03-22T09:53:13;9.43;;;5.38;;
51800;SDS011;37855;53.204;6.568;2024-03-22T09:55:41;9.02;;;5.43;;
51800;SDS011;37855;53.204;6.568;2024-03-22T09:58:09;9.38;;;5.50;;
51800;SDS011;37855;53.204;6.568;2024-03-22T10:00:35;10.20;;;5.10;;
51800;SDS011;37855;53.204;6.568;2024-03-22T10:03:00;8.63;;;5.05;;
51800;SDS011;37855;53.204;6.568;2024-03-22T10:05:29;9.95;;;5.38;;
51800;SDS011;37855;53.204;6.568;2024-03-22T10:07:54;10.53;;;5.33;;
51800;SDS011;37855;53.204;6.568;2024-03-22T10:10:20;9.77;;;5.75;;
51800;SDS011;37855;53.204;6.568;2024-03-22T10:12:46;8.10;;;4.72;;
51800;SDS011;37855;53.204;6.568;2024-03-22T10:15:13;8.90;;;5.40;;
51800;SDS011;37855;53.204;6.568;2024-03-22T10:17:39;7.80;;;4.63;;
51800;SDS011;37855;53.204;6.568;2024-03-22T10:20:05;8.23;;;4.70;;
51800;SDS011;37855;53.204;6.568;2024-03-22T10:22:48;8.50;;;4.53;;
51800;SDS011;37855;53.204;6.568;2024-03-22T10:25:22;6.75;;;4.00;;
51800;SDS011;37855;53.204;6.568;2024-03-22T10:27:48;8.27;;;4.40;;
51800;SDS011;37855;53.204;6.568;2024-03-22T10:30:15;6.63;;;3.95;;
51800;SDS011;37855;53.204;6.568;2024-03-22T10:32:45;7.40;;;4.07;;
51800;SDS011;37855;53.204;6.568;2024-03-22T10:35:30;7.20;;;3.50;;
51800;SDS011;37855;53.204;6.568;2024-03-22T10:37:56;6.53;;;3.90;;
51800;SDS011;37855;53.204;6.568;2024-03-22T10:40:22;6.57;;;3.60;;
51800;SDS011;37855;53.204;6.568;2024-03-22T10:42:48;6.07;;;3.67;;
51800;SDS011;37855;53.204;6.568;2024-03-22T10:45:13;8.45;;;4.22;;
51800;SDS011;37855;53.204;6.568;2024-03-22T10:47:39;7.00;;;3.70;;
51800;SDS011;37855;53.204;6.568;2024-03-22T10:50:11;5.90;;;3.25;;
51800;SDS011;37855;53.204;6.568;2024-03-22T10:55:45;6.43;;;3.30;;
51800;SDS011;37855;53.204;6.568;2024-03-22T10:58:30;6.22;;;3.42;;
51800;SDS011;37855;53.204;6.568;2024-03-22T11:00:56;6.05;;;3.00;;
51800;SDS011;37855;53.204;6.568;2024-03-22T11:03:23;5.55;;;3.13;;
51800;SDS011;37855;53.204;6.568;2024-03-22T11:05:53;5.97;;;3.20;;
51800;SDS011;37855;53.204;6.568;2024-03-22T11:08:23;6.15;;;3.00;;
51800;SDS011;37855;53.204;6.568;2024-03-22T11:10:56;6.65;;;2.67;;
51800;SDS011;37855;53.204;6.568;2024-03-22T11:13:23;5.70;;;2.85;;
51800;SDS011;37855;53.204;6.568;2024-03-22T11:15:49;6.15;;;2.80;;
51800;SDS011;37855;53.204;6.568;2024-03-22T11:18:16;5.40;;;2.50;;
51800;SDS011;37855;53.204;6.568;2024-03-22T11:20:42;5.13;;;2.80;;
51800;SDS011;37855;53.204;6.568;2024-03-22T11:23:10;5.82;;;2.53;;
51800;SDS011;37855;53.204;6.568;2024-03-22T11:25:35;5.50;;;2.47;;
51800;SDS011;37855;53.204;6.568;2024-03-22T11:28:04;6.03;;;2.80;;
51800;SDS011;37855;53.204;6.568;2024-03-22T11:30:32;5.70;;;2.72;;
51800;SDS011;37855;53.204;6.568;2024-03-22T11:33:02;5.53;;;3.00;;
51800;SDS011;37855;53.204;6.568;2024-03-22T11:35:28;7.18;;;3.10;;
51800;SDS011;37855;53.204;6.568;2024-03-22T11:37:54;5.80;;;2.70;;
51800;SDS011;37855;53.204;6.568;2024-03-22T11:40:27;5.70;;;2.70;;
51800;SDS011;37855;53.204;6.568;2024-03-22T11:42:55;6.10;;;2.30;;
51800;SDS011;37855;53.204;6.568;2024-03-22T11:45:22;4.60;;;2.50;;
51800;SDS011;37855;53.204;6.568;2024-03-22T11:47:49;4.90;;;2.40;;
51800;SDS011;37855;53.204;6.568;2024-03-22T11:50:14;5.27;;;2.40;;
51800;SDS011;37855;53.204;6.568;2024-03-22T11:52:41;3.47;;;2.10;;
51800;SDS011;37855;53.204;6.568;2024-03-22T11:55:07;3.65;;;1.85;;
51800;SDS011;37855;53.204;6.568;2024-03-22T11:57:33;5.72;;;1.98;;
51800;SDS011;37855;53.204;6.568;2024-03-22T11:59:59;5.33;;;2.40;;
51800;SDS011;37855;53.204;6.568;2024-03-22T12:02:26;4.00;;;1.83;;
51800;SDS011;37855;53.204;6.568;2024-03-22T12:04:52;3.83;;;1.80;;
51800;SDS011;37855;53.204;6.568;2024-03-22T12:07:18;4.73;;;2.10;;
51800;SDS011;37855;53.204;6.568;2024-03-22T12:09:44;6.88;;;2.40;;
51800;SDS011;37855;53.204;6.568;2024-03-22T12:12:10;5.45;;;2.47;;
51800;SDS011;37855;53.204;6.568;2024-03-22T12:14:37;5.17;;;2.47;;
51800;SDS011;37855;53.204;6.568;2024-03-22T12:17:07;6.38;;;2.63;;
51800;SDS011;37855;53.204;6.568;2024-03-22T12:19:33;7.40;;;2.40;;
51800;SDS011;37855;53.204;6.568;2024-03-22T12:21:59;5.00;;;2.40;;
51800;SDS011;37855;53.204;6.568;2024-03-22T12:24:25;5.72;;;2.42;;
51800;SDS011;37855;53.204;6.568;2024-03-22T12:26:54;7.57;;;2.37;;
51800;SDS011;37855;53.204;6.568;2024-03-22T12:29:20;5.20;;;2.72;;
51800;SDS011;37855;53.204;6.568;2024-03-22T12:31:46;6.60;;;2.93;;
51800;SDS011;37855;53.204;6.568;2024-03-22T12:34:12;7.90;;;2.75;;
51800;SDS011;37855;53.204;6.568;2024-03-22T12:36:38;8.82;;;2.88;;
51800;SDS011;37855;53.204;6.568;2024-03-22T12:39:04;10.03;;;3.10;;
51800;SDS011;37855;53.204;6.568;2024-03-22T12:41:30;7.50;;;3.08;;
51800;SDS011;37855;53.204;6.568;2024-03-22T12:43:56;7.40;;;3.50;;
51800;SDS011;37855;53.204;6.568;2024-03-22T12:46:22;8.43;;;3.30;;
51800;SDS011;37855;53.204;6.568;2024-03-22T12:48:48;6.30;;;3.00;;
51800;SDS011;37855;53.204;6.568;2024-03-22T12:51:13;8.13;;;3.88;;
51800;SDS011;37855;53.204;6.568;2024-03-22T12:53:40;11.35;;;3.60;;
51800;SDS011;37855;53.204;6.568;2024-03-22T12:56:05;8.67;;;3.53;;
51800;SDS011;37855;53.204;6.568;2024-03-22T12:58:31;8.05;;;3.70;;
51800;SDS011;37855;53.204;6.568;2024-03-22T13:00:57;10.97;;;3.90;;
51800;SDS011;37855;53.204;6.568;2024-03-22T13:03:24;9.70;;;3.80;;
51800;SDS011;37855;53.204;6.568;2024-03-22T13:05:59;9.93;;;3.50;;
51800;SDS011;37855;53.204;6.568;2024-03-22T13:08:25;11.70;;;3.27;;
51800;SDS011;37855;53.204;6.568;2024-03-22T13:10:53;10.57;;;3.87;;
51800;SDS011;37855;53.204;6.568;2024-03-22T13:13:21;16.23;;;3.88;;
51800;SDS011;37855;53.204;6.568;2024-03-22T13:15:47;12.73;;;4.40;;
51800;SDS011;37855;53.204;6.568;2024-03-22T13:18:13;12.77;;;3.67;;
51800;SDS011;37855;53.204;6.568;2024-03-22T13:20:38;17.48;;;4.22;;
51800;SDS011;37855;53.204;6.568;2024-03-22T13:23:04;12.70;;;3.80;;
51800;SDS011;37855;53.204;6.568;2024-03-22T13:25:30;15.52;;;3.63;;
51800;SDS011;37855;53.204;6.568;2024-03-22T13:27:57;13.23;;;3.50;;
51800;SDS011;37855;53.204;6.568;2024-03-22T13:30:22;13.17;;;3.60;;
51800;SDS011;37855;53.204;6.568;2024-03-22T13:32:48;14.30;;;3.97;;
51800;SDS011;37855;53.204;6.568;2024-03-22T13:35:14;19.13;;;4.70;;
51800;SDS011;37855;53.204;6.568;2024-03-22T13:37:40;14.47;;;4.27;;
51800;SDS011;37855;53.204;6.568;2024-03-22T13:40:09;17.33;;;4.60;;
51800;SDS011;37855;53.204;6.568;2024-03-22T13:42:35;15.07;;;4.55;;
51800;SDS011;37855;53.204;6.568;2024-03-22T13:45:01;17.20;;;4.33;;
51800;SDS011;37855;53.204;6.568;2024-03-22T13:47:30;16.85;;;4.35;;
51800;SDS011;37855;53.204;6.568;2024-03-22T13:49:56;15.68;;;4.80;;
51800;SDS011;37855;53.204;6.568;2024-03-22T13:52:21;14.67;;;3.93;;
51800;SDS011;37855;53.204;6.568;2024-03-22T13:54:47;13.50;;;3.85;;
51800;SDS011;37855;53.204;6.568;2024-03-22T13:57:15;16.03;;;3.97;;
51800;SDS011;37855;53.204;6.568;2024-03-22T13:59:41;11.90;;;3.55;;
51800;SDS011;37855;53.204;6.568;2024-03-22T14:02:06;14.13;;;4.00;;
51800;SDS011;37855;53.204;6.568;2024-03-22T14:04:35;13.90;;;3.60;;
51800;SDS011;37855;53.204;6.568;2024-03-22T14:07:01;15.60;;;3.63;;
51800;SDS011;37855;53.204;6.568;2024-03-22T14:09:30;13.88;;;3.05;;
51800;SDS011;37855;53.204;6.568;2024-03-22T14:11:57;13.70;;;3.30;;
51800;SDS011;37855;53.204;6.568;2024-03-22T14:14:24;14.37;;;3.50;;
51800;SDS011;37855;53.204;6.568;2024-03-22T14:16:50;12.88;;;3.63;;
51800;SDS011;37855;53.204;6.568;2024-03-22T14:19:16;13.90;;;3.50;;
51800;SDS011;37855;53.204;6.568;2024-03-22T14:21:44;16.23;;;3.92;;
51800;SDS011;37855;53.204;6.568;2024-03-22T14:24:11;19.97;;;4.17;;
51800;SDS011;37855;53.204;6.568;2024-03-22T14:26:37;14.07;;;3.78;;
51800;SDS011;37855;53.204;6.568;2024-03-22T14:29:07;16.95;;;4.25;;
51800;SDS011;37855;53.204;6.568;2024-03-22T14:31:34;13.73;;;3.42;;
51800;SDS011;37855;53.204;6.568;2024-03-22T14:33:59;11.87;;;3.03;;